Time;durP1;ratioP1;P1;durP2;ratioP2;P2;SDS_P1;SDS_P2;PMS_P1;PMS_P2;Temp;Humidity;BMP_temperature;BMP_pressure;BME280_temperature;BME280_humidity;BME280_pressure;Samples;Min_cycle;Max_cycle;Signal;HPM_P1;HPM_P2
2021/01/06 00:02:01;;;;;;;21.95;10.55;;;;;;;0.26;91.16;98192.89;251528;1147;23109;-82
2021/01/06 00:07:04;;;;;;;19.33;9.50;;;;;;;0.22;90.56;98203.08;251642;1153;22915;-81
2021/01/06 00:12:07;;;;;;;19.35;10.65;;;;;;;0.22;90.85;98207.56;251459;1151;22883;-81
2021/01/06 00:17:11;;;;;;;17.33;9.33;;;;;;;0.28;90.98;98203.98;251536;1148;22917;-82
2021/01/06 00:22:13;;;;;;;19.63;9.73;;;;;;;0.29;90.86;98197.68;251782;1148;22964;-81
2021/01/06 00:27:15;;;;;;;21.10;9.00;;;;;;;0.27;90.31;98202.40;251431;1148;22964;-81
2021/01/06 00:32:19;;;;;;;16.30;8.17;;;;;;;0.19;90.09;98195.66;251475;1148;22971;-81
2021/01/06 00:37:21;;;;;;;15.50;8.73;;;;;;;0.22;91.30;98207.56;251668;1152;22957;-81
2021/01/06 00:42:23;;;;;;;15.50;8.35;;;;;;;0.25;90.43;98217.63;251405;1147;27218;-82
2021/01/06 00:47:25;;;;;;;13.50;7.67;;;;;;;0.29;91.13;98219.55;251588;1148;22918;-81
2021/01/06 00:52:28;;;;;;;15.27;8.47;;;;;;;0.31;90.55;98214.07;251724;1148;23049;-81
2021/01/06 00:57:30;;;;;;;15.17;9.00;;;;;;;0.33;90.93;98219.89;251681;1148;22744;-81
2021/01/06 01:02:33;;;;;;;11.55;6.80;;;;;;;0.39;91.14;98226.05;251522;1148;22949;-81
2021/01/06 01:07:35;;;;;;;15.43;7.97;;;;;;;0.41;90.53;98221.37;251192;1155;23041;-82
2021/01/06 01:12:39;;;;;;;19.20;10.07;;;;;;;0.46;90.30;98222.26;251398;1147;22949;-88
2021/01/06 01:17:44;;;;;;;15.67;8.90;;;;;;;0.57;90.93;98219.80;251474;1152;22970;-81
2021/01/06 01:22:48;;;;;;;18.27;9.80;;;;;;;0.57;90.72;98220.59;250944;1148;24896;-81
2021/01/06 01:27:51;;;;;;;15.10;8.35;;;;;;;0.56;90.21;98223.45;250951;1152;22906;-81
2021/01/06 01:32:54;;;;;;;18.57;9.80;;;;;;;0.61;90.17;98219.08;251263;1148;22967;-81
2021/01/06 01:37:58;;;;;;;15.25;8.60;;;;;;;0.64;91.01;98223.08;251278;1155;22968;-81
2021/01/06 01:43:07;;;;;;;17.80;10.00;;;;;;;0.63;90.21;98219.66;251831;1147;26401;-81
2021/01/06 01:48:18;;;;;;;19.57;9.70;;;;;;;0.70;90.32;98205.52;251741;1150;22942;-79
2021/01/06 01:53:30;;;;;;;18.57;9.90;;;;;;;0.76;90.45;98205.37;251276;1147;22979;-81
2021/01/06 01:58:35;;;;;;;16.63;9.57;;;;;;;0.74;90.14;98215.37;251190;1148;23026;-83
2021/01/06 02:03:46;;;;;;;17.13;9.17;;;;;;;0.71;89.50;98205.27;251734;1147;23008;-81
2021/01/06 02:08:56;;;;;;;14.97;7.97;;;;;;;0.72;90.69;98198.97;251490;1148;22948;-81
2021/01/06 02:14:19;;;;;;;;;;;;;;;0.72;90.24;98193.70;251425;1147;24365;-83
2021/01/06 02:19:27;;;;;;;16.50;9.23;;;;;;;0.72;90.40;98201.61;251496;1153;21566;-80
2021/01/06 02:24:29;;;;;;;15.40;8.90;;;;;;;0.71;90.48;98200.00;251284;1147;22941;-82
2021/01/06 02:29:35;;;;;;;18.47;9.40;;;;;;;0.74;89.93;98199.55;251369;1155;22886;-81
2021/01/06 02:34:39;;;;;;;21.35;11.35;;;;;;;0.74;89.78;98199.55;251517;1148;23385;-80
2021/01/06 02:39:41;;;;;;;31.70;14.80;;;;;;;0.74;90.54;98206.64;251681;1152;22942;-81
2021/01/06 02:44:45;;;;;;;27.70;14.07;;;;;;;0.73;90.27;98215.58;251333;1148;23339;-80
2021/01/06 02:49:49;;;;;;;19.07;10.83;;;;;;;0.74;90.01;98209.27;251675;1153;22956;-81
2021/01/06 02:54:53;;;;;;;27.65;14.85;;;;;;;0.73;90.72;98207.67;251817;1148;25919;-80
2021/01/06 02:59:56;;;;;;;30.70;15.77;;;;;;;0.80;90.82;98206.49;251434;1148;22941;-81
2021/01/06 03:05:07;;;;;;;32.40;17.05;;;;;;;0.84;90.32;98204.19;251574;1147;22970;-80
2021/01/06 03:10:18;;;;;;;38.93;18.97;;;;;;;0.89;90.45;98206.10;251694;1148;22945;-82
2021/01/06 03:15:23;;;;;;;48.23;22.83;;;;;;;0.99;91.30;98201.80;251720;1147;27333;-81
2021/01/06 03:20:33;;;;;;;46.97;23.97;;;;;;;1.08;90.95;98199.55;251414;1147;26028;-83
2021/01/06 03:25:37;;;;;;;;;;;;;;;1.13;91.37;98199.61;251543;1148;22949;-80
2021/01/06 03:30:40;;;;;;;46.85;25.60;;;;;;;1.09;90.48;98190.61;251518;1148;25681;-79
2021/01/06 03:35:45;;;;;;;51.70;25.17;;;;;;;1.08;90.52;98185.55;251498;1148;23001;-81
2021/01/06 03:40:49;;;;;;;45.70;23.97;;;;;;;1.02;90.73;98180.21;251597;1147;25900;-81
2021/01/06 03:45:57;;;;;;;45.40;22.87;;;;;;;0.91;90.34;98182.91;251657;1148;22885;-81
2021/01/06 03:51:13;;;;;;;42.73;22.10;;;;;;;0.75;90.81;98187.94;251606;1148;23023;-81
2021/01/06 03:56:25;;;;;;;38.27;19.17;;;;;;;0.71;90.86;98186.03;251577;1147;26414;-80
2021/01/06 04:01:50;;;;;;;39.13;20.43;;;;;;;0.63;90.92;98187.20;251563;1152;22935;-79
2021/01/06 04:06:55;;;;;;;43.63;22.40;;;;;;;0.62;90.09;98169.81;251435;1147;23379;-81
2021/01/06 04:12:05;;;;;;;45.80;22.33;;;;;;;0.58;90.99;98166.05;251293;1147;27714;-82
2021/01/06 04:17:13;;;;;;;44.80;21.90;;;;;;;0.55;90.49;98174.44;251376;1147;27218;-80
2021/01/06 04:22:22;;;;;;;40.95;21.90;;;;;;;0.59;90.14;98170.27;251295;1153;22970;-81
2021/01/06 04:27:24;;;;;;;41.87;21.00;;;;;;;0.64;90.39;98170.36;251575;1147;22946;-81
2021/01/06 04:32:32;;;;;;;43.87;22.90;;;;;;;0.69;90.91;98159.91;251470;1150;23005;-82
2021/01/06 04:37:34;;;;;;;41.20;21.10;;;;;;;0.73;90.50;98153.12;251279;1147;22938;-81
2021/01/06 04:42:37;;;;;;;42.80;21.20;;;;;;;0.82;90.82;98156.94;251548;1147;22937;-82
2021/01/06 04:47:58;;;;;;;40.37;20.10;;;;;;;0.89;90.18;98163.91;251520;1147;26596;-80
2021/01/06 04:53:28;;;;;;;41.20;21.53;;;;;;;0.93;90.97;98160.55;251589;1148;22940;-81
2021/01/06 04:58:39;;;;;;;40.73;21.07;;;;;;;1.03;90.89;98154.63;251431;1148;23044;-79
2021/01/06 05:03:57;;;;;;;39.17;21.03;;;;;;;1.11;91.25;98161.34;251627;1152;22992;-81
2021/01/06 05:09:05;;;;;;;33.47;19.20;;;;;;;1.19;91.07;98155.66;251332;1147;27902;-81
2021/01/06 05:14:16;;;;;;;34.60;18.27;;;;;;;1.17;90.33;98160.37;251638;1151;22946;-81
2021/01/06 05:19:29;;;;;;;44.47;22.27;;;;;;;1.17;90.12;98170.92;251571;1150;22918;-79
2021/01/06 05:24:37;;;;;;;44.50;23.13;;;;;;;1.13;90.22;98167.95;251804;1148;22974;-81
2021/01/06 05:30:00;;;;;;;43.07;21.27;;;;;;;1.16;90.44;98164.03;251362;1150;23568;-82
2021/01/06 05:35:08;;;;;;;46.40;23.97;;;;;;;1.22;89.87;98178.10;251514;1148;22885;-81
2021/01/06 05:40:13;;;;;;;38.50;19.97;;;;;;;1.27;90.73;98171.05;251350;1148;22895;-81
2021/01/06 05:45:19;;;;;;;30.57;17.30;;;;;;;1.32;90.00;98175.62;251277;1150;23100;-81
2021/01/06 05:50:37;;;;;;;30.23;16.37;;;;;;;1.41;90.65;98165.45;250764;1148;22905;-79
2021/01/06 05:55:44;;;;;;;29.80;16.77;;;;;;;1.48;91.00;98176.62;251391;1148;23099;-80
2021/01/06 06:01:02;;;;;;;45.80;24.17;;;;;;;1.46;89.71;98189.28;250779;1148;22944;-80
2021/01/06 06:06:13;;;;;;;57.85;30.05;;;;;;;1.40;90.14;98179.68;251065;1153;23259;-82
2021/01/06 06:11:36;;;;;;;59.17;29.33;;;;;;;1.38;90.53;98168.58;251697;1148;25278;-80
2021/01/06 06:16:53;;;;;;;47.30;23.87;;;;;;;1.34;90.00;98160.34;251731;1148;22960;-81
2021/01/06 06:22:07;;;;;;;37.57;18.53;;;;;;;1.28;89.38;98170.02;251657;1147;22918;-80
2021/01/06 06:27:26;;;;;;;49.80;22.90;;;;;;;1.26;90.22;98164.20;251362;1148;22988;-81
2021/01/06 06:32:32;;;;;;;46.87;21.93;;;;;;;1.17;89.76;98165.64;251491;1147;22942;-81
2021/01/06 06:37:34;;;;;;;41.70;21.60;;;;;;;1.07;88.84;98155.73;251167;1147;23219;-82
2021/01/06 06:42:52;;;;;;;34.43;17.80;;;;;;;1.07;90.05;98161.02;251439;1148;26356;-81
2021/01/06 06:48:18;;;;;;;32.97;15.97;;;;;;;1.01;89.71;98168.05;250800;1147;22936;-79
2021/01/06 06:53:57;;;;;;;36.57;18.10;;;;;;;0.89;89.38;98174.45;250981;1148;22967;-81
2021/01/06 06:59:13;;;;;;;32.10;15.45;;;;;;;0.80;89.70;98169.58;251746;1148;23069;-81
2021/01/06 07:04:41;;;;;;;31.47;15.10;;;;;;;0.72;89.38;98169.18;251531;1150;23103;-82
2021/01/06 07:09:50;;;;;;;42.35;20.65;;;;;;;0.65;89.78;98154.30;251299;1147;22932;-81
2021/01/06 07:14:55;;;;;;;44.57;21.77;;;;;;;0.53;89.47;98136.96;252058;1152;22959;-79
2021/01/06 07:20:00;;;;;;;40.83;18.77;;;;;;;0.34;89.09;98171.44;251930;1147;23027;-80
2021/01/06 07:25:27;;;;;;;38.60;20.73;;;;;;;0.23;90.02;98185.46;251638;1147;23794;-81
2021/01/06 07:30:39;;;;;;;35.73;18.50;;;;;;;0.15;90.40;98187.44;251350;1147;22964;-79
2021/01/06 07:35:42;;;;;;;40.27;22.30;;;;;;;0.13;90.13;98189.49;251559;1152;22932;-79
2021/01/06 07:40:46;;;;;;;38.43;20.57;;;;;;;0.19;90.08;98185.12;251495;1148;22954;-82
2021/01/06 07:45:49;;;;;;;43.25;23.25;;;;;;;0.33;90.15;98177.73;251717;1154;23094;-82
2021/01/06 07:51:09;;;;;;;36.83;21.07;;;;;;;0.48;90.29;98177.22;251643;1148;23331;-80
2021/01/06 07:56:22;;;;;;;46.70;26.57;;;;;;;0.59;90.52;98176.35;251667;1148;22898;-79
2021/01/06 08:01:40;;;;;;;42.40;23.43;;;;;;;0.70;90.69;98176.52;252024;1147;23008;-80
2021/01/06 08:06:56;;;;;;;35.57;19.83;;;;;;;0.78;90.18;98181.40;251593;1150;22950;-80
2021/01/06 08:12:10;;;;;;;35.80;21.00;;;;;;;0.86;89.95;98186.28;251493;1148;22984;-80
2021/01/06 08:17:24;;;;;;;50.50;29.35;;;;;;;0.90;89.49;98189.25;251317;1150;23002;-78
2021/01/06 08:22:29;;;;;;;57.27;29.87;;;;;;;0.94;89.69;98185.88;251813;1148;22933;-80
2021/01/06 08:27:37;;;;;;;61.47;34.63;;;;;;;0.98;89.45;98189.64;251675;1148;22970;-80
2021/01/06 08:32:40;;;;;;;55.90;33.23;;;;;;;0.98;89.69;98178.27;251256;1148;22980;-80
2021/01/06 08:37:44;;;;;;;58.00;32.37;;;;;;;1.04;90.44;98172.05;251080;1155;22972;-79
2021/01/06 08:42:46;;;;;;;52.47;30.40;;;;;;;1.08;89.98;98178.45;251228;1148;22952;-80
2021/01/06 08:47:49;;;;;;;53.90;29.87;;;;;;;1.10;89.41;98175.56;251255;1150;22970;-81
2021/01/06 08:53:00;;;;;;;53.40;31.27;;;;;;;1.11;89.35;98179.81;251382;1148;22973;-81
2021/01/06 08:58:02;;;;;;;47.80;25.93;;;;;;;1.18;90.22;98183.08;251524;1148;22974;-81
2021/01/06 09:03:08;;;;;;;38.60;22.83;;;;;;;1.21;90.04;98187.08;251624;1147;23096;-79
2021/01/06 09:08:18;;;;;;;47.50;26.85;;;;;;;1.22;89.91;98191.30;251724;1146;23213;-79
2021/01/06 09:13:35;;;;;;;48.17;28.33;;;;;;;1.26;89.98;98185.31;251467;1148;22951;-83
2021/01/06 09:18:43;;;;;;;47.20;28.55;;;;;;;1.31;89.42;98184.58;251642;1148;23040;-81
2021/01/06 09:23:52;;;;;;;43.23;24.63;;;;;;;1.33;88.91;98179.84;252286;1148;22910;-79
2021/01/06 09:29:11;;;;;;;49.60;28.60;;;;;;;1.36;89.63;98177.53;252595;1148;25893;-81
2021/01/06 09:34:18;;;;;;;45.20;25.37;;;;;;;1.47;89.31;98160.00;252269;1148;23015;-80
2021/01/06 09:39:27;;;;;;;39.10;22.50;;;;;;;1.60;89.30;98155.41;252721;1148;26766;-79
2021/01/06 09:44:31;;;;;;;38.80;21.65;;;;;;;1.69;89.73;98157.38;251918;1147;23014;-80
2021/01/06 09:49:39;;;;;;;28.90;16.80;;;;;;;1.81;88.80;98137.98;251796;1153;22909;-81
2021/01/06 09:54:42;;;;;;;39.27;20.37;;;;;;;1.83;88.99;98131.41;251664;1148;23110;-81
2021/01/06 09:59:51;;;;;;;50.45;27.65;;;;;;;1.73;87.99;98120.70;252014;1148;22946;-81
2021/01/06 10:04:59;;;;;;;48.33;26.97;;;;;;;1.62;88.85;98113.71;251419;1148;26018;-79
2021/01/06 10:10:18;;;;;;;39.57;23.03;;;;;;;1.56;88.98;98109.42;251767;1148;22939;-80
2021/01/06 10:15:49;;;;;;;31.07;18.73;;;;;;;1.52;88.38;98104.61;251834;1150;22957;-81
2021/01/06 10:20:59;;;;;;;30.53;18.23;;;;;;;1.44;88.82;98091.05;252482;1147;24745;-78
2021/01/06 10:26:33;;;;;;;34.75;17.80;;;;;;;1.40;89.20;98084.67;251670;1148;22978;-81
2021/01/06 10:32:00;;;;;;;30.87;17.30;;;;;;;1.31;88.69;98081.66;251179;1148;22934;-79
2021/01/06 10:37:03;;;;;;;39.57;20.57;;;;;;;1.25;88.67;98064.19;251460;1147;22960;-80
2021/01/06 10:42:20;;;;;;;40.60;22.43;;;;;;;1.20;89.11;98051.70;251171;1148;23134;-80
2021/01/06 10:47:26;;;;;;;42.07;22.23;;;;;;;1.23;88.54;98051.20;251014;1148;22934;-79
2021/01/06 10:52:48;;;;;;;41.75;22.90;;;;;;;1.24;88.36;98038.83;251273;1148;23049;-79
2021/01/06 10:58:03;;;;;;;38.53;20.63;;;;;;;1.24;88.97;98042.25;251195;1147;23018;-80
2021/01/06 11:03:32;;;;;;;43.80;23.10;;;;;;;1.22;88.82;98039.08;250930;1148;23392;-79
2021/01/06 11:08:44;;;;;;;34.05;19.90;;;;;;;1.26;89.57;98037.55;250715;1148;22964;-88
2021/01/06 11:14:08;;;;;;;38.77;21.63;;;;;;;1.29;88.84;98031.77;250716;1148;23066;-82
2021/01/06 11:19:36;;;;;;;40.00;21.40;;;;;;;1.35;89.68;98022.86;250494;1147;22907;-81
2021/01/06 11:24:51;;;;;;;35.37;19.20;;;;;;;1.43;88.97;98026.92;250481;1148;22903;-80
2021/01/06 11:30:00;;;;;;;40.73;23.27;;;;;;;1.51;89.49;98036.23;251006;1147;22955;-80
2021/01/06 11:35:11;;;;;;;39.73;21.70;;;;;;;1.51;89.92;98029.13;250980;1148;23907;-80
2021/01/06 11:40:48;;;;;;;40.83;22.00;;;;;;;1.53;89.21;98015.67;250784;1154;22929;-79
2021/01/06 11:45:51;;;;;;;45.93;24.30;;;;;;;1.63;89.89;98012.34;251227;1148;22959;-81
2021/01/06 11:51:12;;;;;;;43.50;24.80;;;;;;;1.70;89.67;98018.22;251743;1148;23448;-79
2021/01/06 11:56:17;;;;;;;47.40;26.53;;;;;;;1.74;89.42;98000.84;251565;1147;22967;-80
2021/01/06 12:01:48;;;;;;;43.30;25.00;;;;;;;1.77;89.02;98005.61;251536;1148;22894;-81
2021/01/06 12:07:23;;;;;;;37.47;21.87;;;;;;;1.82;89.08;98004.86;251999;1148;23048;-78
2021/01/06 12:12:25;;;;;;;61.47;32.10;;;;;;;1.88;88.98;97998.59;252048;1152;22954;-79
2021/01/06 12:17:41;;;;;;;61.60;34.70;;;;;;;1.88;89.66;97999.38;252401;1148;22943;-81
2021/01/06 12:23:15;;;;;;;62.70;35.13;;;;;;;1.82;88.70;97987.19;252406;1152;22969;-81
2021/01/06 12:28:52;;;;;;;58.40;33.90;;;;;;;1.78;89.08;97991.38;252176;1147;27227;-81
2021/01/06 12:34:07;;;;;;;;;;;;;;;1.72;89.61;97989.71;251865;1153;22918;-80
2021/01/06 12:39:30;;;;;;;59.90;33.97;;;;;;;1.70;89.04;97979.41;251843;1148;21582;-78
2021/01/06 12:44:36;;;;;;;71.70;37.40;;;;;;;1.66;89.55;97985.44;251838;1149;22968;-80
2021/01/06 12:49:53;;;;;;;66.03;36.40;;;;;;;1.69;89.96;97977.02;252128;1148;22960;-82
2021/01/06 12:55:29;;;;;;;66.70;36.25;;;;;;;1.75;89.82;97975.22;252280;1148;22980;-80
2021/01/06 13:00:41;;;;;;;53.20;30.80;;;;;;;1.77;89.38;97976.56;251961;1148;23005;-81
2021/01/06 13:05:52;;;;;;;72.33;39.53;;;;;;;1.78;90.11;97964.17;252678;1148;26385;-80
2021/01/06 13:11:08;;;;;;;69.50;36.83;;;;;;;1.83;89.59;97957.09;252490;1151;22905;-79
2021/01/06 13:16:36;;;;;;;55.37;32.87;;;;;;;1.84;89.19;97957.87;252028;1152;22911;-81
2021/01/06 13:21:43;;;;;;;59.50;34.63;;;;;;;1.91;89.67;97952.40;252842;1151;23680;-80
2021/01/06 13:26:51;;;;;;;51.73;30.53;;;;;;;1.96;90.00;97965.63;252135;1152;22932;-80
2021/01/06 13:31:53;;;;;;;80.63;41.10;;;;;;;1.92;89.88;97959.25;251855;1147;22935;-78
2021/01/06 13:37:09;;;;;;;69.17;39.23;;;;;;;1.90;89.82;97967.42;252196;1148;22921;-82
2021/01/06 13:42:37;;;;;;;84.80;44.77;;;;;;;1.94;89.73;97973.80;252245;1148;22938;-80
2021/01/06 13:48:17;;;;;;;69.63;39.93;;;;;;;1.95;89.50;97975.41;251147;1148;22954;-81
2021/01/06 13:53:29;;;;;;;;;;;;;;;1.93;89.69;97974.06;251968;1148;22883;-80
2021/01/06 13:58:43;;;;;;;94.77;45.80;;;;;;;1.89;89.80;97976.42;251786;1147;21579;-81
2021/01/06 14:04:01;;;;;;;93.37;49.93;;;;;;;1.94;90.32;97986.23;252088;1152;22995;-80
2021/01/06 14:09:23;;;;;;;99.37;50.57;;;;;;;1.93;90.01;97985.44;252690;1147;23412;-83
2021/01/06 14:14:37;;;;;;;79.83;40.80;;;;;;;1.95;90.05;97993.89;251680;1148;22945;-80
2021/01/06 14:20:10;;;;;;;77.80;42.57;;;;;;;1.93;90.10;98000.47;251668;1148;22943;-79
2021/01/06 14:25:26;;;;;;;59.70;30.80;;;;;;;1.95;90.09;98008.96;251444;1149;23038;-81
2021/01/06 14:30:40;;;;;;;65.93;35.10;;;;;;;1.96;90.18;98005.25;251339;1147;22967;-81
2021/01/06 14:35:46;;;;;;;54.20;28.80;;;;;;;1.97;89.88;98004.20;251910;1152;24276;-80
2021/01/06 14:40:52;;;;;;;66.03;37.37;;;;;;;1.97;89.99;98006.85;251673;1148;22892;-80
2021/01/06 14:46:11;;;;;;;72.85;37.70;;;;;;;1.95;90.39;97990.47;251155;1152;22963;-79
2021/01/06 14:51:23;;;;;;;73.70;40.63;;;;;;;1.86;89.58;98001.48;251414;1148;23293;-79
2021/01/06 14:56:49;;;;;;;70.93;37.30;;;;;;;1.82;90.14;97987.19;251819;1148;22973;-80
2021/01/06 15:01:57;;;;;;;77.85;41.90;;;;;;;1.78;89.48;97994.02;251396;1147;25890;-79
2021/01/06 15:07:15;;;;;;;84.67;43.93;;;;;;;1.79;89.87;97989.52;251582;1148;22978;-80
2021/01/06 15:12:23;;;;;;;81.40;43.10;;;;;;;1.72;89.76;97987.07;251702;1150;22997;-83
2021/01/06 15:17:30;;;;;;;84.47;44.93;;;;;;;1.68;90.20;97972.80;252284;1152;22939;-81
2021/01/06 15:22:36;;;;;;;94.13;49.93;;;;;;;1.69;90.53;97969.91;252191;1147;26286;-81
2021/01/06 15:27:39;;;;;;;91.67;47.77;;;;;;;1.73;90.28;97961.48;252209;1148;22973;-80
2021/01/06 15:32:40;;;;;;;81.75;42.75;;;;;;;1.71;90.49;97967.80;252207;1149;23104;-80
2021/01/06 15:37:43;;;;;;;73.90;39.43;;;;;;;1.71;90.50;97959.88;252077;1148;22940;-80
2021/01/06 15:42:47;;;;;;;70.30;36.55;;;;;;;1.72;90.16;97968.59;251765;1148;22967;-80
2021/01/06 15:47:58;;;;;;;47.85;28.35;;;;;;;1.69;90.35;97961.98;251513;1155;22940;-81
2021/01/06 15:53:14;;;;;;;50.60;28.53;;;;;;;1.68;90.34;97964.88;251750;1148;22946;-80
2021/01/06 15:58:18;;;;;;;75.53;40.13;;;;;;;1.67;90.44;97961.42;251775;1147;23001;-79
2021/01/06 16:03:23;;;;;;;75.20;39.70;;;;;;;1.68;90.85;97954.32;251653;1148;22953;-82
2021/01/06 16:08:37;;;;;;;79.07;40.60;;;;;;;1.71;90.63;97948.53;252383;1148;22887;-81
2021/01/06 16:13:42;;;;;;;93.23;47.97;;;;;;;1.74;90.31;97955.16;252455;1147;23532;-82
2021/01/06 16:18:47;;;;;;;77.33;40.67;;;;;;;1.72;90.36;97955.38;252286;1152;22939;-81
2021/01/06 16:24:05;;;;;;;96.37;47.07;;;;;;;1.68;90.21;97964.88;251682;1147;26546;-80
2021/01/06 16:29:33;;;;;;;127.17;58.23;;;;;;;1.63;90.61;97956.91;251856;1147;24478;-82
2021/01/06 16:34:36;;;;;;;107.93;52.50;;;;;;;1.60;90.30;97958.20;251653;1150;22942;-80
2021/01/06 16:39:38;;;;;;;107.93;51.87;;;;;;;1.57;89.95;97957.88;251674;1152;22953;-79
2021/01/06 16:44:43;;;;;;;94.60;49.50;;;;;;;1.51;90.80;97954.40;252298;1147;26373;-82
2021/01/06 16:49:50;;;;;;;97.33;46.43;;;;;;;1.46;90.19;97960.44;252769;1153;23047;-81
2021/01/06 16:55:12;;;;;;;92.60;47.67;;;;;;;1.41;90.39;97955.09;252650;1148;23221;-80
2021/01/06 17:00:25;;;;;;;68.45;37.30;;;;;;;1.45;90.60;97958.05;252130;1148;22966;-80
2021/01/06 17:05:29;;;;;;;92.00;44.55;;;;;;;1.38;89.94;97960.88;252224;1150;22966;-79
2021/01/06 17:10:38;;;;;;;83.83;43.13;;;;;;;1.30;90.24;97948.94;253126;1148;22911;-81
2021/01/06 17:16:01;;;;;;;90.60;45.03;;;;;;;1.30;90.79;97953.39;253066;1148;23098;-85
2021/01/06 17:21:10;;;;;;;92.53;45.13;;;;;;;1.34;90.88;97949.22;252133;1150;23421;-80
2021/01/06 17:26:22;;;;;;;88.52;44.23;;;;;;;1.32;90.52;97961.88;252178;1151;22943;-80
2021/01/06 17:31:25;;;;;;;68.17;35.67;;;;;;;1.27;90.48;97965.23;252048;1148;22940;-79
2021/01/06 17:36:27;;;;;;;105.00;48.80;;;;;;;1.22;90.39;97970.48;251760;1151;22931;-82
2021/01/06 17:41:38;;;;;;;104.37;47.27;;;;;;;1.22;90.23;97970.48;252005;1153;24342;-81
2021/01/06 17:46:42;;;;;;;98.30;48.30;;;;;;;1.22;90.07;97977.58;252373;1148;22895;-82
2021/01/06 17:51:44;;;;;;;95.60;46.25;;;;;;;1.27;91.01;97978.43;252640;1148;23023;-82
2021/01/06 17:56:48;;;;;;;98.77;50.63;;;;;;;1.30;90.66;97980.59;252555;1148;22879;-80
2021/01/06 18:01:52;;;;;;;116.50;56.33;;;;;;;1.32;91.31;97986.41;252263;1147;22879;-79
2021/01/06 18:07:08;;;;;;;117.60;53.60;;;;;;;1.39;91.16;97983.59;252825;1149;22761;-80
2021/01/06 18:12:26;;;;;;;96.97;46.77;;;;;;;1.47;91.01;97985.79;252826;1152;23205;-80
2021/01/06 18:17:30;;;;;;;93.57;45.17;;;;;;;1.54;90.98;97989.03;252599;1150;23000;-81
2021/01/06 18:22:32;;;;;;;94.73;46.23;;;;;;;1.61;90.78;97970.36;252477;1155;22922;-81
2021/01/06 18:27:36;;;;;;;73.93;38.93;;;;;;;1.59;90.62;97979.56;252218;1151;22948;-81
2021/01/06 18:32:38;;;;;;;100.73;48.87;;;;;;;1.52;90.49;97988.46;252252;1153;22959;-79
2021/01/06 18:37:41;;;;;;;99.83;46.67;;;;;;;1.53;90.67;97976.08;252181;1151;22974;-80
2021/01/06 18:42:44;;;;;;;99.00;47.63;;;;;;;1.58;91.27;97970.05;252165;1155;22967;-81
2021/01/06 18:47:51;;;;;;;165.83;86.87;;;;;;;1.63;91.04;97975.38;252733;1148;23027;-86
2021/01/06 18:53:22;;;;;;;101.90;47.57;;;;;;;1.61;91.36;97970.36;252821;1148;25919;-79
2021/01/06 18:58:27;;;;;;;103.03;46.47;;;;;;;1.63;91.14;97970.11;252599;1148;22917;-80
2021/01/06 19:03:56;;;;;;;98.30;47.13;;;;;;;1.65;91.38;97973.28;252708;1148;22930;-80
2021/01/06 19:09:00;;;;;;;98.20;46.50;;;;;;;1.58;90.80;97980.60;252958;1148;22949;-79
2021/01/06 19:14:07;;;;;;;97.70;48.97;;;;;;;1.52;90.13;97982.39;252372;1147;22971;-80
2021/01/06 19:19:14;;;;;;;86.70;42.97;;;;;;;1.50;90.97;97982.64;252384;1153;22958;-80
2021/01/06 19:24:25;;;;;;;110.33;51.27;;;;;;;1.47;90.21;97984.97;253002;1147;22993;-80
2021/01/06 19:29:27;;;;;;;120.33;55.20;;;;;;;1.46;90.25;97983.40;252121;1153;23410;-79
2021/01/06 19:34:29;;;;;;;109.40;49.27;;;;;;;1.41;89.84;97975.42;252209;1147;23004;-78
2021/01/06 19:39:31;;;;;;;88.20;43.37;;;;;;;1.36;90.59;97992.80;252279;1152;22948;-81
2021/01/06 19:44:34;;;;;;;72.30;37.70;;;;;;;1.31;90.07;97989.30;252284;1153;22924;-85
2021/01/06 19:49:39;;;;;;;103.23;49.17;;;;;;;1.23;89.88;97993.16;252330;1150;23033;-86
2021/01/06 19:54:41;;;;;;;113.13;53.13;;;;;;;1.23;90.67;97998.44;251825;1148;22927;-81
2021/01/06 19:59:49;;;;;;;114.03;52.27;;;;;;;1.25;90.43;97991.09;252019;1151;23050;-78
2021/01/06 20:05:02;;;;;;;127.07;58.27;;;;;;;1.30;90.38;98000.89;252651;1146;26002;-80
2021/01/06 20:10:17;;;;;;;84.30;41.50;;;;;;;1.36;90.63;97999.92;252016;1150;22942;-79
2021/01/06 20:15:22;;;;;;;108.90;52.07;;;;;;;1.25;89.91;97998.22;251953;1150;23693;-81
2021/01/06 20:20:24;;;;;;;111.20;52.10;;;;;;;1.18;90.42;98004.45;252245;1147;22973;-79
2021/01/06 20:25:27;;;;;;;105.77;49.97;;;;;;;1.15;90.15;98007.59;252332;1151;22971;-80
2021/01/06 20:30:30;;;;;;;111.30;51.17;;;;;;;1.16;90.16;98001.28;251713;1153;23000;-80
2021/01/06 20:35:33;;;;;;;118.15;56.10;;;;;;;1.17;90.23;98005.49;251736;1155;23055;-80
2021/01/06 20:40:36;;;;;;;105.97;51.80;;;;;;;1.19;90.85;97998.15;251675;1151;22958;-80
2021/01/06 20:45:40;;;;;;;127.97;61.20;;;;;;;1.29;90.88;98000.11;252173;1155;23067;-79
2021/01/06 20:50:43;;;;;;;144.77;65.67;;;;;;;1.42;91.41;97992.86;251709;1148;24489;-79
2021/01/06 20:55:45;;;;;;;143.55;65.95;;;;;;;1.51;91.46;97997.45;251727;1148;23048;-79
2021/01/06 21:00:56;;;;;;;145.87;66.33;;;;;;;1.61;91.81;97988.84;251868;1148;22958;-80
2021/01/06 21:05:59;;;;;;;138.00;64.90;;;;;;;1.70;91.36;97981.25;251796;1148;22942;-81
2021/01/06 21:11:03;;;;;;;139.00;62.83;;;;;;;1.69;91.48;97983.11;251838;1148;25925;-78
2021/01/06 21:16:05;;;;;;;133.80;62.63;;;;;;;1.75;91.56;97989.23;251715;1150;22962;-81
2021/01/06 21:21:08;;;;;;;132.70;61.00;;;;;;;1.80;91.43;97989.27;251828;1150;23291;-80
2021/01/06 21:26:10;;;;;;;136.85;60.25;;;;;;;1.86;91.49;97990.11;252004;1147;23004;-80
2021/01/06 21:31:17;;;;;;;139.20;65.33;;;;;;;1.85;90.95;97991.17;251291;1151;23421;-80
2021/01/06 21:36:19;;;;;;;156.25;69.60;;;;;;;1.88;91.45;97980.10;251852;1154;23109;-80
2021/01/06 21:41:23;;;;;;;163.67;70.80;;;;;;;1.91;91.57;97976.17;251755;1148;22943;-81
2021/01/06 21:46:30;;;;;;;155.17;68.97;;;;;;;1.95;91.44;97961.41;251606;1155;22983;-79
2021/01/06 21:51:36;;;;;;;147.23;67.80;;;;;;;1.96;91.50;97977.01;251430;1148;23264;-78
2021/01/06 21:56:38;;;;;;;146.50;65.83;;;;;;;1.98;90.90;97977.54;251701;1148;23164;-79
2021/01/06 22:01:42;;;;;;;139.07;64.63;;;;;;;1.96;91.39;97970.91;251911;1148;22768;-80
2021/01/06 22:06:44;;;;;;;144.45;68.55;;;;;;;1.95;91.04;97975.41;251950;1150;22887;-80
2021/01/06 22:11:46;;;;;;;135.63;60.30;;;;;;;1.95;91.38;97974.63;251856;1148;22943;-78
2021/01/06 22:16:55;;;;;;;125.83;58.47;;;;;;;1.93;90.89;97974.88;251891;1152;23350;-83
2021/01/06 22:21:57;;;;;;;130.23;60.03;;;;;;;1.86;90.44;97961.87;251585;1149;22947;-84
2021/01/06 22:27:00;;;;;;;130.67;60.70;;;;;;;1.79;90.29;97963.92;251981;1148;26498;-78
2021/01/06 22:32:03;;;;;;;135.87;61.97;;;;;;;1.80;90.38;97967.35;251905;1150;22981;-80
2021/01/06 22:37:22;;;;;;;134.63;58.20;;;;;;;1.76;90.86;97956.48;251952;1149;23088;-81
2021/01/06 22:42:25;;;;;;;131.03;58.73;;;;;;;1.81;91.21;97953.89;251312;1148;22949;-79
2021/01/06 22:47:27;;;;;;;131.20;59.77;;;;;;;1.86;90.97;97959.23;251736;1155;23084;-80
2021/01/06 22:52:29;;;;;;;116.37;55.57;;;;;;;1.83;90.82;97953.64;252114;1147;23423;-80
2021/01/06 22:57:31;;;;;;;141.13;59.63;;;;;;;1.85;91.25;97959.48;251713;1148;22997;-80
2021/01/06 23:02:34;;;;;;;135.40;58.07;;;;;;;1.82;90.56;97957.32;251854;1148;23006;-80
2021/01/06 23:07:36;;;;;;;132.97;57.63;;;;;;;1.78;90.53;97962.33;251872;1148;22885;-81
2021/01/06 23:12:39;;;;;;;118.50;54.70;;;;;;;1.77;90.64;97957.30;251826;1148;22959;-79
2021/01/06 23:17:41;;;;;;;95.37;45.80;;;;;;;1.68;90.46;97960.38;251583;1153;22937;-80
2021/01/06 23:22:43;;;;;;;111.30;51.27;;;;;;;1.63;90.15;97964.83;251778;1150;23001;-80
2021/01/06 23:27:54;;;;;;;123.57;53.90;;;;;;;1.57;90.09;97961.34;251512;1153;25345;-79
2021/01/06 23:32:56;;;;;;;115.93;51.73;;;;;;;1.55;89.97;97963.41;251568;1150;22918;-80
2021/01/06 23:37:58;;;;;;;112.40;50.83;;;;;;;1.52;90.18;97956.00;252391;1147;28921;-81
2021/01/06 23:43:00;;;;;;;90.70;43.20;;;;;;;1.50;90.13;97958.11;251758;1150;23014;-81